Airfield :
LOGIN :

Register | Disclaimer

   EN    FR    IT 

 










Legend :    VFR   Marginal VFR   IFR   Intensive IFR   Very Intensive IFR
Visi :
Ceiling :
>= 8 km
>= 3000ft
5 to 8 km
1000 to 3000 ft
1500m to 5 km
500 to 1000 ft
800 to 1500m
200 to 500 ft
< 800m
< 200 ft
Symbols :   Thunderstorms  Fog  Heavy snow  Heavy precipitations  Wind > 20 kt
SIGMETs :     Misc.  Thunderstorms  Icing  Turbulence  Mountain Waves  Volcanic Ashes







- Airport Elevation : 162 ft
- IATA code : BOD
- Download approach charts


LFBD - Bordeaux / Merignac

CURRENT METAR :
  • 201530Z AUTO 03005KT CAVOK 04/01 Q1003 NOSIG

EXPIRED METARs :
  • 201500Z AUTO 02003KT CAVOK 04/00 Q1003 NOSIG
  • 201430Z AUTO VRB02KT 9999 FEW016 BKN170 BKN200 04/00 Q1003 NOSIG
  • 201400Z AUTO VRB03KT 9999 BKN015 BKN170 OVC200 05/01 Q1003 NOSIG
  • 201330Z AUTO VRB01KT 9999 BKN014 OVC170 04/00 Q1003 BECMG NSC
  • 201300Z AUTO 00000KT 9999 OVC011 03/00 Q1003 BECMG NSC

TAF AMD TAF LFBD
Valid from the 20 at 12:00 until the 21 at 18:00 UTC


201258Z 2012/2118 VRB02KT 9999 BKN010 TX09/2015Z TNM01/2106Z
BECMG 2013/2014 CAVOK
PROB30
TEMPO 2022/2106 0500 BCFG
ATIS : +33 5 57 92 81 04
No reported NOTAMs for that airfield.



MET'MAP, your aeronautical weather chart ! - Copyright ORBIFLY December 2007 - Disclaimer

ORBIFLY MET'MAP TEAM :

Programming & Development : Alexandra Zaïnal
Concept & Development : Baudouin d'Aumeries
Co-Development & Prog : Marc-Olivier Méhu
Technical & hardware support : Manuel Goepfert

Contact : metmap@orbifly.com




SOURCES & CREDITS :

   NOAA